Robertsville, OH (44670)

10:10 AM EST on January 25, 2015 (GMT -0500)
Village of East Canton | Change Station
CLOSE
Current Station
Personal Weather Station
Location: East Canton, OH
Elevation: 1155 ft
Nearby Weather Stations
Active Advisory: Winter Weather Advisory Active Notice: Public Information Statement

Elev 1155 ft 40.79 °N, 81.29 °W | Updated 4 minutes ago

Overcast
Overcast
34.2 °F
Feels Like 34 °F
N
0.0
Wind Variable Wind from South
Gusts 2.2 mph

Today
High -- | Low -- °F
--% Chance of Precip.
Yesterday
High -- | Low -- °F
Precip. -- in
7:41 AM 5:33 PM
Waxing Crescent, 33% visible
Pressure 29.81 in
Visibility 1.0 miles
Clouds Overcast 800 ft
Windchill 34 °F
Dew Point 30 °F
Humidity 83%
Rainfall 0.00 in
Snow Depth Not available.
UV 0 out of 12
Pollen .10 out of 12
Air Quality Not available.
Flu Activity Not available.
METAR KCAK 251451Z 03003KT 1SM R23/4000V4500FT BR OVC008 01/M01 A2977 RMK AO2 SLP092 60000 T00111006 53010

More Conditions Fewer Conditions

Pressure 29.81 in
Visibility 1.0 miles
Clouds Overcast 800 ft
Windchill 34 °F
Dew Point 30 °F
Humidity 83%
Rainfall 0.00 in
Snow Depth Not available.
UV 0 out of 12
Pollen .10 out of 12
Air Quality Not available.
Flu Activity Not available.
METAR KCAK 251451Z 03003KT 1SM R23/4000V4500FT BR OVC008 01/M01 A2977 RMK AO2 SLP092 60000 T00111006 53010

More Conditions Fewer Conditions

10-Day Weather Forecast

Almanac

Astronomy

Jan. 25, 2015 Rise Set
Actual Time
Civil Twilight
Nautical Twilight
Astronomical Twilight
Moon
Length of Visible Light
Length of Day
Tomorrow will be .
, % of the Moon is Illuminated

Today's Extremes

State Highs State Lows

Community

WunderPhotos

Upload Photos

1,789,909 photos uploaded!

WunderBlogs® & News

Nearby

Air Quality

  Air Quality AQ Index Pollutant
Not available.

Snow Depth

Station Depth Elevation

Earthquake Activity

City Distance Mag. Time & Date
Minimum magnitude displayed is 2.5.

Coastal Water Temperatures

Place Temperature

Nearby Weather Stations